Time;durP1;ratioP1;P1;durP2;ratioP2;P2;SDS_P1;SDS_P2;PMS_P1;PMS_P2;Temp;Humidity;BMP_temperature;BMP_pressure;BME280_temperature;BME280_humidity;BME280_pressure;Samples;Min_cycle;Max_cycle;Signal;HPM_P1;HPM_P2
2023/08/09 00:00:05;;;;;;;;;;;24.60;49.40;;;;;;5093650;28;19928;-50
2023/08/09 00:02:32;;;;;;;;;;;24.60;49.40;;;;;;5093710;28;19924;-51
2023/08/09 00:04:59;;;;;;;;;;;24.60;49.40;;;;;;5093125;28;19928;-52
2023/08/09 00:07:26;;;;;;;;;;;24.60;49.40;;;;;;5092486;28;19932;-53
2023/08/09 00:09:53;;;;;;;;;;;24.60;49.40;;;;;;5092214;28;20388;-54
2023/08/09 00:12:20;;;;;;;;;;;24.60;49.40;;;;;;5092497;28;19969;-53
2023/08/09 00:14:47;;;;;;;;;;;24.60;49.40;;;;;;5092537;28;20399;-54
2023/08/09 00:17:14;;;;;;;;;;;24.60;49.40;;;;;;5093348;28;19931;-53
2023/08/09 00:19:41;;;;;;;;;;;24.60;49.40;;;;;;5092670;28;19970;-54
2023/08/09 00:22:08;;;;;;;;;;;24.60;49.40;;;;;;5093033;28;19931;-53
2023/08/09 00:24:35;;;;;;;;;;;24.60;49.40;;;;;;5093157;28;19924;-54
2023/08/09 00:27:02;;;;;;;;;;;24.60;49.40;;;;;;5092850;28;19924;-53
2023/08/09 00:29:30;;;;;;;;;;;24.60;49.40;;;;;;5092650;28;19924;-55
2023/08/09 00:31:57;;;;;;;;;;;24.60;49.40;;;;;;5092637;28;19924;-54
2023/08/09 00:34:24;;;;;;;;;;;24.60;49.40;;;;;;5092650;28;19928;-54
2023/08/09 00:36:51;;;;;;;;;;;24.50;49.50;;;;;;5093876;28;20322;-56
2023/08/09 00:39:18;;;;;;;;;;;24.50;49.50;;;;;;5096667;28;20326;-54
2023/08/09 00:41:45;;;;;;;;;;;24.50;49.50;;;;;;5096235;28;19924;-54
2023/08/09 00:44:12;;;;;;;;;;;24.50;49.60;;;;;;5097949;28;20036;-54
2023/08/09 00:46:39;;;;;;;;;;;24.50;49.60;;;;;;5096868;28;19924;-54
2023/08/09 00:49:07;;;;;;;;;;;24.50;49.60;;;;;;5096241;28;19924;-53
2023/08/09 00:51:34;;;;;;;;;;;24.50;49.60;;;;;;5095738;28;19931;-54
2023/08/09 00:54:01;;;;;;;;;;;24.50;49.70;;;;;;5097343;28;19975;-52
2023/08/09 00:56:28;;;;;;;;;;;24.50;49.70;;;;;;5097452;28;19928;-54
2023/08/09 00:58:55;;;;;;;;;;;24.50;49.70;;;;;;5097270;28;19931;-53
2023/08/09 01:01:22;;;;;;;;;;;24.50;49.70;;;;;;5094714;28;20445;-54
2023/08/09 01:03:49;;;;;;;;;;;24.50;49.70;;;;;;5097217;28;20431;-53
2023/08/09 01:06:21;;;;;;;;;;;24.50;49.70;;;;;;5095812;28;20405;-54
2023/08/09 01:09:08;;;;;;;;;;;24.50;49.70;;;;;;5096247;28;19924;-51
2023/08/09 01:11:49;;;;;;;;;;;24.50;49.80;;;;;;5096085;28;19924;-55
2023/08/09 01:14:17;;;;;;;;;;;24.50;49.80;;;;;;5096248;28;19931;-53
2023/08/09 01:16:45;;;;;;;;;;;24.50;49.80;;;;;;5096211;28;20343;-54
2023/08/09 01:19:25;;;;;;;;;;;24.50;49.80;;;;;;5096291;28;19977;-53
2023/08/09 01:21:53;;;;;;;;;;;24.50;49.80;;;;;;5096956;28;19969;-54
2023/08/09 01:24:20;;;;;;;;;;;24.50;49.80;;;;;;5096824;28;19993;-52
2023/08/09 01:26:47;;;;;;;;;;;24.50;49.80;;;;;;5096446;28;19928;-55
2023/08/09 01:29:14;;;;;;;;;;;24.50;49.90;;;;;;5096616;28;19977;-54
2023/08/09 01:31:41;;;;;;;;;;;24.50;49.90;;;;;;5095957;28;20261;-53
2023/08/09 01:34:08;;;;;;;;;;;24.50;49.90;;;;;;5096908;28;20344;-54
2023/08/09 01:36:36;;;;;;;;;;;24.40;49.80;;;;;;5096410;28;19928;-54
2023/08/09 01:39:07;;;;;;;;;;;24.50;49.90;;;;;;5096635;28;19993;-54
2023/08/09 01:41:34;;;;;;;;;;;24.50;49.90;;;;;;5095912;28;19924;-49
2023/08/09 01:44:02;;;;;;;;;;;24.50;49.90;;;;;;5096484;28;19931;-54
2023/08/09 01:46:29;;;;;;;;;;;24.50;49.90;;;;;;5095823;28;19970;-52
2023/08/09 01:49:11;;;;;;;;;;;24.40;49.90;;;;;;5095104;28;20008;-51
2023/08/09 01:51:41;;;;;;;;;;;24.40;49.90;;;;;;5095782;28;19924;-54
2023/08/09 01:54:08;;;;;;;;;;;24.40;49.90;;;;;;5095116;28;19931;-53
2023/08/09 01:56:39;;;;;;;;;;;24.40;49.90;;;;;;5096177;28;19957;-54
2023/08/09 01:59:06;;;;;;;;;;;24.40;49.90;;;;;;5096409;28;19924;-52
2023/08/09 02:01:33;;;;;;;;;;;24.40;49.90;;;;;;5094436;28;20445;-54
2023/08/09 02:04:00;;;;;;;;;;;24.40;49.90;;;;;;5096274;28;19947;-54
2023/08/09 02:06:27;;;;;;;;;;;24.40;49.90;;;;;;5095160;28;20380;-54
2023/08/09 02:08:54;;;;;;;;;;;24.40;49.80;;;;;;5095323;28;19977;-53
2023/08/09 02:11:21;;;;;;;;;;;24.40;49.80;;;;;;5096036;28;19967;-53
2023/08/09 02:13:48;;;;;;;;;;;24.40;49.80;;;;;;5095728;28;19928;-50
2023/08/09 02:16:15;;;;;;;;;;;24.40;49.80;;;;;;5095855;28;20411;-52
2023/08/09 02:18:43;;;;;;;;;;;24.40;49.80;;;;;;5095999;28;19969;-53
2023/08/09 02:21:10;;;;;;;;;;;24.50;49.80;;;;;;5095518;28;20023;-55
2023/08/09 02:23:38;;;;;;;;;;;24.50;49.80;;;;;;5095411;28;20281;-53
2023/08/09 02:26:05;;;;;;;;;;;24.50;49.80;;;;;;5095753;28;19924;-54
2023/08/09 02:28:32;;;;;;;;;;;24.50;49.80;;;;;;5095191;28;20331;-54
2023/08/09 02:31:00;;;;;;;;;;;24.40;49.70;;;;;;5095373;28;19924;-52
2023/08/09 02:33:27;;;;;;;;;;;24.50;49.80;;;;;;5095489;28;19924;-54
2023/08/09 02:35:59;;;;;;;;;;;24.50;49.80;;;;;;5095127;28;19928;-54
2023/08/09 02:38:27;;;;;;;;;;;24.50;49.80;;;;;;5095187;28;19932;-53
2023/08/09 02:40:54;;;;;;;;;;;24.40;49.70;;;;;;5095385;28;19983;-54
2023/08/09 02:43:25;;;;;;;;;;;24.40;49.70;;;;;;5095034;28;19924;-54
2023/08/09 02:45:53;;;;;;;;;;;24.40;49.70;;;;;;5094677;28;19924;-53
2023/08/09 02:48:20;;;;;;;;;;;24.40;49.80;;;;;;5093261;28;19924;-54
2023/08/09 02:50:48;;;;;;;;;;;24.40;49.80;;;;;;5094191;28;19924;-54
2023/08/09 02:53:15;;;;;;;;;;;24.40;49.90;;;;;;5093303;28;19939;-54
2023/08/09 02:55:43;;;;;;;;;;;24.40;49.90;;;;;;5094606;28;19924;-54
2023/08/09 02:58:10;;;;;;;;;;;24.40;49.90;;;;;;5094429;28;20338;-54
2023/08/09 03:00:37;;;;;;;;;;;24.40;49.90;;;;;;5093491;28;19924;-54
2023/08/09 03:03:04;;;;;;;;;;;24.40;50.00;;;;;;5093909;28;19925;-54
2023/08/09 03:05:31;;;;;;;;;;;24.40;50.00;;;;;;5093443;28;19931;-51
2023/08/09 03:07:59;;;;;;;;;;;24.40;50.00;;;;;;5093939;28;19989;-53
2023/08/09 03:10:26;;;;;;;;;;;24.40;50.00;;;;;;5094455;28;20361;-54
2023/08/09 03:12:53;;;;;;;;;;;24.30;50.00;;;;;;5094053;28;19924;-54
2023/08/09 03:15:21;;;;;;;;;;;24.40;50.00;;;;;;5093834;28;20257;-52
2023/08/09 03:17:48;;;;;;;;;;;24.40;50.00;;;;;;5094448;28;19924;-54
2023/08/09 03:20:17;;;;;;;;;;;24.30;50.00;;;;;;5093208;28;19931;-54
2023/08/09 03:22:44;;;;;;;;;;;24.40;50.00;;;;;;5094396;28;19974;-54
2023/08/09 03:25:12;;;;;;;;;;;24.30;50.00;;;;;;5094756;28;19960;-54
2023/08/09 03:27:39;;;;;;;;;;;24.40;50.10;;;;;;5092942;28;19973;-57
2023/08/09 03:30:08;;;;;;;;;;;24.30;50.00;;;;;;5093178;28;19928;-56
2023/08/09 03:32:36;;;;;;;;;;;24.40;50.10;;;;;;5094659;28;19928;-54
2023/08/09 03:35:04;;;;;;;;;;;24.30;50.00;;;;;;5094546;28;19931;-54
2023/08/09 03:37:31;;;;;;;;;;;24.30;50.10;;;;;;5093947;28;20018;-54
2023/08/09 03:39:58;;;;;;;;;;;24.30;50.00;;;;;;5093673;28;20019;-55
2023/08/09 03:42:26;;;;;;;;;;;24.30;50.00;;;;;;5092856;28;19947;-54
2023/08/09 03:44:53;;;;;;;;;;;24.40;50.10;;;;;;5093163;28;20018;-54
2023/08/09 03:47:20;;;;;;;;;;;24.30;50.00;;;;;;5093693;28;19931;-54
2023/08/09 03:49:47;;;;;;;;;;;24.30;50.00;;;;;;5094098;28;19924;-54
2023/08/09 03:52:14;;;;;;;;;;;24.30;50.00;;;;;;5094043;28;19975;-55
2023/08/09 03:54:41;;;;;;;;;;;24.30;50.00;;;;;;5092700;28;19924;-54
2023/08/09 03:57:08;;;;;;;;;;;24.30;50.00;;;;;;5093925;28;20266;-52
2023/08/09 03:59:36;;;;;;;;;;;24.40;50.00;;;;;;5093380;28;19972;-54
2023/08/09 04:02:03;;;;;;;;;;;24.40;50.00;;;;;;5087257;28;19928;-54
2023/08/09 04:04:30;;;;;;;;;;;24.40;50.20;;;;;;5076810;28;20031;-54
2023/08/09 04:06:57;;;;;;;;;;;24.40;50.00;;;;;;5093974;28;19931;-53
2023/08/09 04:09:24;;;;;;;;;;;24.40;49.90;;;;;;5093544;28;20010;-55
2023/08/09 04:11:50;;;;;;;;;;;24.40;49.90;;;;;;5093070;28;19977;-54
2023/08/09 04:14:18;;;;;;;;;;;24.40;49.80;;;;;;5093452;28;20435;-54
2023/08/09 04:16:46;;;;;;;;;;;24.40;49.80;;;;;;5092472;28;19990;-54
2023/08/09 04:19:12;;;;;;;;;;;24.40;49.70;;;;;;5092873;28;19924;-51
2023/08/09 04:21:39;;;;;;;;;;;24.50;49.70;;;;;;5093433;28;19924;-54
2023/08/09 04:24:07;;;;;;;;;;;24.50;49.60;;;;;;5093294;28;19928;-54
2023/08/09 04:26:34;;;;;;;;;;;24.50;49.50;;;;;;5092996;28;19931;-54
2023/08/09 04:29:01;;;;;;;;;;;24.50;49.40;;;;;;5093239;28;20011;-54
2023/08/09 04:31:28;;;;;;;;;;;24.50;49.40;;;;;;5092866;28;19924;-56
2023/08/09 04:33:55;;;;;;;;;;;24.60;49.40;;;;;;5086063;28;19924;-51
2023/08/09 04:36:22;;;;;;;;;;;24.50;49.30;;;;;;5081132;28;19964;-53
2023/08/09 04:38:49;;;;;;;;;;;24.50;49.40;;;;;;5077905;28;19924;-55
2023/08/09 04:41:16;;;;;;;;;;;24.50;49.40;;;;;;5072524;28;19929;-54
2023/08/09 04:43:43;;;;;;;;;;;24.30;49.50;;;;;;5071906;28;19978;-54
2023/08/09 04:46:11;;;;;;;;;;;24.20;49.80;;;;;;5072361;28;19982;-54
2023/08/09 04:48:39;;;;;;;;;;;23.90;50.20;;;;;;5071947;28;20379;-54
2023/08/09 04:51:07;;;;;;;;;;;23.70;50.70;;;;;;5072218;28;19971;-54
2023/08/09 04:53:34;;;;;;;;;;;23.40;50.50;;;;;;5072349;28;19925;-53
2023/08/09 04:56:03;;;;;;;;;;;23.00;49.40;;;;;;5089568;28;19924;-54
2023/08/09 04:58:30;;;;;;;;;;;22.70;48.30;;;;;;5091758;28;20448;-56
2023/08/09 05:00:58;;;;;;;;;;;22.40;48.10;;;;;;5093105;28;20035;-53
2023/08/09 05:03:25;;;;;;;;;;;22.10;47.40;;;;;;5092651;28;20442;-52
2023/08/09 05:05:52;;;;;;;;;;;21.80;47.60;;;;;;5093035;28;19946;-54
2023/08/09 05:08:19;;;;;;;;;;;21.50;48.70;;;;;;5092737;28;19974;-53
2023/08/09 05:10:45;;;;;;;;;;;21.20;49.50;;;;;;5092463;28;19973;-54
2023/08/09 05:13:13;;;;;;;;;;;21.00;49.80;;;;;;5093225;28;20036;-53
2023/08/09 05:15:39;;;;;;;;;;;20.70;49.50;;;;;;5093126;28;20292;-54
2023/08/09 05:18:07;;;;;;;;;;;20.50;48.60;;;;;;5086211;28;20012;-54
2023/08/09 05:20:34;;;;;;;;;;;20.30;50.10;;;;;;5089750;28;20272;-54
2023/08/09 05:23:01;;;;;;;;;;;20.20;50.70;;;;;;5083896;28;19949;-55
2023/08/09 05:25:28;;;;;;;;;;;20.00;49.00;;;;;;5088771;28;20266;-55
2023/08/09 05:27:56;;;;;;;;;;;19.90;50.00;;;;;;5091588;28;19925;-57
2023/08/09 05:30:23;;;;;;;;;;;19.70;51.20;;;;;;5080870;28;20464;-57
2023/08/09 05:32:50;;;;;;;;;;;19.60;50.70;;;;;;5076803;28;19928;-58
2023/08/09 05:35:17;;;;;;;;;;;19.50;50.60;;;;;;5076329;28;20019;-55
2023/08/09 05:37:45;;;;;;;;;;;19.40;51.80;;;;;;5069460;28;19943;-57
2023/08/09 05:40:13;;;;;;;;;;;19.30;51.90;;;;;;5071676;28;20377;-58
2023/08/09 05:42:40;;;;;;;;;;;19.20;50.70;;;;;;5078221;28;19924;-58
2023/08/09 05:45:08;;;;;;;;;;;19.10;51.80;;;;;;5070683;28;20019;-56
2023/08/09 05:47:36;;;;;;;;;;;19.10;52.50;;;;;;5071649;28;19955;-57
2023/08/09 05:50:05;;;;;;;;;;;19.10;51.30;;;;;;5074170;28;19925;-55
2023/08/09 05:52:32;;;;;;;;;;;19.00;51.70;;;;;;5074924;28;20339;-55
2023/08/09 05:54:58;;;;;;;;;;;19.00;53.00;;;;;;5069461;28;19967;-55
2023/08/09 05:57:25;;;;;;;;;;;18.90;52.60;;;;;;5078131;28;19982;-55
2023/08/09 05:59:53;;;;;;;;;;;18.90;52.10;;;;;;5079122;28;19940;-55
2023/08/09 06:02:20;;;;;;;;;;;18.90;53.00;;;;;;5076561;28;19924;-56
2023/08/09 06:04:47;;;;;;;;;;;18.80;53.10;;;;;;5073271;28;19971;-57
2023/08/09 06:07:14;;;;;;;;;;;18.90;52.20;;;;;;5070148;28;19927;-58
2023/08/09 06:09:41;;;;;;;;;;;18.90;52.70;;;;;;5073636;28;20697;-58
2023/08/09 06:12:08;;;;;;;;;;;18.90;53.10;;;;;;5074457;28;20052;-56
2023/08/09 06:14:36;;;;;;;;;;;18.90;52.80;;;;;;5072837;28;19925;-58
2023/08/09 06:17:03;;;;;;;;;;;18.90;52.40;;;;;;5076693;28;20007;-58
2023/08/09 06:19:31;;;;;;;;;;;18.90;53.50;;;;;;5073555;28;20281;-57
2023/08/09 06:21:58;;;;;;;;;;;18.90;53.10;;;;;;5076760;28;19934;-59
2023/08/09 06:24:25;;;;;;;;;;;18.90;52.40;;;;;;5071887;28;20019;-58
2023/08/09 06:26:53;;;;;;;;;;;18.90;53.70;;;;;;5069702;28;19929;-59
2023/08/09 06:29:20;;;;;;;;;;;18.80;53.80;;;;;;5070314;28;19964;-58
2023/08/09 06:31:47;;;;;;;;;;;18.80;53.50;;;;;;5076583;28;20348;-57
2023/08/09 06:34:14;;;;;;;;;;;18.80;53.60;;;;;;5067278;28;19932;-58
2023/08/09 06:36:41;;;;;;;;;;;18.80;54.20;;;;;;5074317;28;19928;-56
2023/08/09 06:39:09;;;;;;;;;;;18.80;54.10;;;;;;5055877;28;20420;-59
2023/08/09 06:41:36;;;;;;;;;;;18.80;53.70;;;;;;5076551;28;20660;-59
2023/08/09 06:44:03;;;;;;;;;;;18.80;53.70;;;;;;5075038;28;19950;-58
2023/08/09 06:46:30;;;;;;;;;;;18.80;54.40;;;;;;5073924;28;20029;-54
2023/08/09 06:48:57;;;;;;;;;;;18.80;53.90;;;;;;5071643;28;20022;-58
2023/08/09 06:51:24;;;;;;;;;;;18.90;54.60;;;;;;5077391;28;19928;-58
2023/08/09 06:53:51;;;;;;;;;;;18.90;54.30;;;;;;5074015;28;19929;-58
2023/08/09 06:56:18;;;;;;;;;;;18.80;54.40;;;;;;5069975;28;19928;-55
2023/08/09 06:58:45;;;;;;;;;;;18.90;54.50;;;;;;5069683;28;19978;-57
2023/08/09 07:01:12;;;;;;;;;;;18.90;54.80;;;;;;5067774;28;19932;-51
2023/08/09 07:03:41;;;;;;;;;;;18.90;54.80;;;;;;5077002;28;20351;-55
2023/08/09 07:06:08;;;;;;;;;;;19.00;54.80;;;;;;5075459;28;19931;-58
2023/08/09 07:08:35;;;;;;;;;;;19.00;55.00;;;;;;5076383;28;19924;-58
2023/08/09 07:11:02;;;;;;;;;;;19.10;54.70;;;;;;5082561;28;19924;-58
2023/08/09 07:13:29;;;;;;;;;;;19.10;55.20;;;;;;5073707;28;19928;-59
2023/08/09 07:15:57;;;;;;;;;;;19.10;55.10;;;;;;5076319;28;20295;-58
2023/08/09 07:18:25;;;;;;;;;;;19.10;55.10;;;;;;5073616;28;19932;-57
2023/08/09 07:20:52;;;;;;;;;;;19.10;54.90;;;;;;5079319;28;19929;-58
2023/08/09 07:23:19;;;;;;;;;;;19.10;55.60;;;;;;5071391;28;19959;-59
2023/08/09 07:26:06;;;;;;;;;;;19.20;55.40;;;;;;5077431;28;19928;-59
2023/08/09 07:28:33;;;;;;;;;;;19.20;54.90;;;;;;5077591;28;19929;-59
2023/08/09 07:31:01;;;;;;;;;;;19.20;54.90;;;;;;5073699;28;20374;-58
2023/08/09 07:33:28;;;;;;;;;;;19.30;54.90;;;;;;5080989;28;20295;-60
2023/08/09 07:35:55;;;;;;;;;;;19.30;54.70;;;;;;5078668;28;19936;-60
2023/08/09 07:38:23;;;;;;;;;;;19.30;54.40;;;;;;5077205;28;19924;-59
2023/08/09 07:40:50;;;;;;;;;;;19.30;54.70;;;;;;5078532;28;20418;-57
2023/08/09 07:43:17;;;;;;;;;;;19.20;54.60;;;;;;5073689;28;20300;-59
2023/08/09 07:45:48;;;;;;;;;;;19.30;54.60;;;;;;5076607;28;19962;-58
2023/08/09 07:48:15;;;;;;;;;;;19.30;54.40;;;;;;5073462;28;19971;-58
2023/08/09 07:50:43;;;;;;;;;;;19.30;54.40;;;;;;5080026;28;19932;-58
2023/08/09 07:53:10;;;;;;;;;;;19.30;54.40;;;;;;5072425;28;19943;-58
2023/08/09 07:55:38;;;;;;;;;;;19.40;54.50;;;;;;5070996;28;19946;-59
2023/08/09 07:58:06;;;;;;;;;;;19.40;54.30;;;;;;5077570;28;19994;-59
2023/08/09 08:00:33;;;;;;;;;;;19.40;54.70;;;;;;5071355;28;20016;-59
2023/08/09 08:03:15;;;;;;;;;;;19.40;54.60;;;;;;5072123;28;19981;-59
2023/08/09 08:05:42;;;;;;;;;;;19.50;54.40;;;;;;5076829;28;19963;-59
2023/08/09 08:08:12;;;;;;;;;;;19.50;54.90;;;;;;5079954;28;20348;-59
2023/08/09 08:10:41;;;;;;;;;;;19.50;54.40;;;;;;5074002;28;20027;-59
2023/08/09 08:13:08;;;;;;;;;;;19.60;54.70;;;;;;5075072;28;19935;-59
2023/08/09 08:15:36;;;;;;;;;;;19.60;55.20;;;;;;5076173;28;19928;-59
2023/08/09 08:18:04;;;;;;;;;;;19.60;54.60;;;;;;5074935;28;19932;-59
2023/08/09 08:20:32;;;;;;;;;;;19.60;54.60;;;;;;5076642;28;20404;-59
2023/08/09 08:22:59;;;;;;;;;;;19.60;54.80;;;;;;5073286;28;19936;-59
2023/08/09 08:25:27;;;;;;;;;;;19.70;54.30;;;;;;5077544;28;19932;-58
2023/08/09 08:27:54;;;;;;;;;;;19.70;54.40;;;;;;5075733;28;19967;-58
2023/08/09 08:30:21;;;;;;;;;;;19.70;54.50;;;;;;5072866;28;20007;-58
2023/08/09 08:32:49;;;;;;;;;;;19.70;54.40;;;;;;5081584;28;20135;-57
2023/08/09 08:35:20;;;;;;;;;;;19.70;54.40;;;;;;5076547;28;20433;-54
2023/08/09 08:37:49;;;;;;;;;;;19.70;54.60;;;;;;5076420;28;20315;-57
2023/08/09 08:40:17;;;;;;;;;;;19.80;54.60;;;;;;5077392;28;19967;-58
2023/08/09 08:42:45;;;;;;;;;;;19.80;54.50;;;;;;5075647;28;19932;-57
2023/08/09 08:45:14;;;;;;;;;;;19.90;54.40;;;;;;5069442;28;19937;-57
2023/08/09 08:47:42;;;;;;;;;;;19.90;54.50;;;;;;5082578;28;20541;-56
2023/08/09 08:50:10;;;;;;;;;;;19.90;54.90;;;;;;5070553;28;19937;-57
2023/08/09 08:52:39;;;;;;;;;;;19.90;54.80;;;;;;5072803;28;20436;-57
2023/08/09 08:55:06;;;;;;;;;;;20.00;54.40;;;;;;5072845;28;20023;-58
2023/08/09 08:57:33;;;;;;;;;;;20.00;54.00;;;;;;5073052;28;19929;-58
2023/08/09 09:00:07;;;;;;;;;;;20.00;54.50;;;;;;5075083;28;20173;-58
2023/08/09 09:02:46;;;;;;;;;;;20.00;54.30;;;;;;5071980;28;20008;-58
2023/08/09 09:05:13;;;;;;;;;;;20.00;53.90;;;;;;5075861;28;19947;-59
2023/08/09 09:07:45;;;;;;;;;;;20.00;54.50;;;;;;5082941;28;19934;-58
2023/08/09 09:10:13;;;;;;;;;;;20.10;53.90;;;;;;5080174;28;19924;-59
2023/08/09 09:12:40;;;;;;;;;;;20.10;53.80;;;;;;5080394;28;20027;-58
2023/08/09 09:15:08;;;;;;;;;;;20.10;53.90;;;;;;5083691;28;19978;-57
2023/08/09 09:17:39;;;;;;;;;;;20.10;53.30;;;;;;5086567;28;19986;-58
2023/08/09 09:20:10;;;;;;;;;;;20.10;53.90;;;;;;5077060;28;19932;-57
2023/08/09 09:22:37;;;;;;;;;;;20.10;53.70;;;;;;5077940;28;19940;-58
2023/08/09 09:25:07;;;;;;;;;;;20.10;53.40;;;;;;5072218;28;20034;-56
2023/08/09 09:27:34;;;;;;;;;;;20.10;53.60;;;;;;5084461;28;19928;-59
2023/08/09 09:30:04;;;;;;;;;;;20.00;53.50;;;;;;5075698;28;20346;-58
2023/08/09 09:32:35;;;;;;;;;;;20.00;53.50;;;;;;5076677;28;19933;-57
2023/08/09 09:35:03;;;;;;;;;;;20.00;53.50;;;;;;5077530;28;19928;-58
2023/08/09 09:37:29;;;;;;;;;;;20.00;53.60;;;;;;5072905;28;19939;-58
2023/08/09 09:39:56;;;;;;;;;;;20.00;53.50;;;;;;5076097;28;20030;-58
2023/08/09 09:42:32;;;;;;;;;;;20.00;53.50;;;;;;5075804;28;20007;-57
2023/08/09 09:45:03;;;;;;;;;;;20.00;53.50;;;;;;5077646;28;21675;-56
2023/08/09 09:47:31;;;;;;;;;;;20.00;53.70;;;;;;5074807;28;19924;-58
2023/08/09 09:49:58;;;;;;;;;;;20.00;54.00;;;;;;5078018;28;20305;-57
2023/08/09 09:52:28;;;;;;;;;;;20.00;53.70;;;;;;5079384;28;19925;-56
2023/08/09 09:54:56;;;;;;;;;;;20.00;53.70;;;;;;5083365;28;20340;-56
2023/08/09 09:57:23;;;;;;;;;;;20.00;53.50;;;;;;5076771;28;19935;-58
2023/08/09 09:59:50;;;;;;;;;;;20.00;53.50;;;;;;5075388;28;19928;-57
2023/08/09 10:02:18;;;;;;;;;;;20.00;53.50;;;;;;5081637;28;19924;-58
2023/08/09 10:04:47;;;;;;;;;;;20.00;53.80;;;;;;5077399;28;19972;-58
2023/08/09 10:07:16;;;;;;;;;;;20.00;53.60;;;;;;5074411;28;20331;-50
2023/08/09 10:09:45;;;;;;;;;;;20.10;54.30;;;;;;5069048;28;19932;-58
2023/08/09 10:12:12;;;;;;;;;;;20.10;53.40;;;;;;5078353;28;19924;-58
2023/08/09 10:14:40;;;;;;;;;;;20.10;53.60;;;;;;5074875;28;20008;-59
2023/08/09 10:17:08;;;;;;;;;;;20.00;53.30;;;;;;5081417;28;19932;-57
2023/08/09 10:19:43;;;;;;;;;;;20.00;53.40;;;;;;5077216;28;19938;-58
2023/08/09 10:22:11;;;;;;;;;;;20.00;53.50;;;;;;5078620;28;19939;-58
2023/08/09 10:24:44;;;;;;;;;;;20.00;53.90;;;;;;5080806;28;20364;-59
2023/08/09 10:27:12;;;;;;;;;;;20.00;54.30;;;;;;5081300;28;19932;-58
2023/08/09 10:29:42;;;;;;;;;;;20.00;54.20;;;;;;5086035;28;19934;-58
2023/08/09 10:32:09;;;;;;;;;;;20.00;53.50;;;;;;5081440;28;20376;-58
2023/08/09 10:34:43;;;;;;;;;;;20.00;53.70;;;;;;5078954;28;19924;-57
2023/08/09 10:37:11;;;;;;;;;;;20.00;54.20;;;;;;5087386;28;20507;-58
2023/08/09 10:39:39;;;;;;;;;;;20.00;54.20;;;;;;5075344;28;20402;-59
2023/08/09 10:42:08;;;;;;;;;;;20.00;54.40;;;;;;5079669;28;19931;-59
2023/08/09 10:44:42;;;;;;;;;;;20.00;54.80;;;;;;5077436;28;20320;-58
2023/08/09 10:47:14;;;;;;;;;;;19.90;54.30;;;;;;5077725;28;19963;-57
2023/08/09 10:49:56;;;;;;;;;;;20.00;54.50;;;;;;5077493;28;19960;-58
2023/08/09 10:52:31;;;;;;;;;;;20.00;54.50;;;;;;5079738;28;20360;-57
2023/08/09 10:55:18;;;;;;;;;;;20.00;54.00;;;;;;5074534;28;19932;-58
2023/08/09 10:57:48;;;;;;;;;;;19.90;54.30;;;;;;5070991;28;20031;-59
2023/08/09 11:00:15;;;;;;;;;;;20.00;54.30;;;;;;5070646;28;20442;-59
2023/08/09 11:02:45;;;;;;;;;;;20.00;54.00;;;;;;5073166;28;20002;-59
2023/08/09 11:05:14;;;;;;;;;;;20.00;54.60;;;;;;5074432;28;19931;-58
2023/08/09 11:07:44;;;;;;;;;;;20.00;54.30;;;;;;5076189;28;20401;-59
2023/08/09 11:10:15;;;;;;;;;;;20.00;55.00;;;;;;5080548;28;20261;-58
2023/08/09 11:12:44;;;;;;;;;;;20.00;54.40;;;;;;5076116;28;20325;-58
2023/08/09 11:15:11;;;;;;;;;;;19.90;54.20;;;;;;5075256;28;19978;-58
2023/08/09 11:17:49;;;;;;;;;;;19.90;54.20;;;;;;5074795;28;19928;-58
2023/08/09 11:20:19;;;;;;;;;;;19.90;54.30;;;;;;5073711;28;20209;-59
2023/08/09 11:22:54;;;;;;;;;;;19.90;54.30;;;;;;5074711;28;19929;-59
2023/08/09 11:25:22;;;;;;;;;;;19.80;54.50;;;;;;5076857;28;20434;-59
2023/08/09 11:27:52;;;;;;;;;;;19.80;54.50;;;;;;5076189;28;19940;-59
2023/08/09 11:30:20;;;;;;;;;;;19.90;54.90;;;;;;5074625;28;19958;-59
2023/08/09 11:32:57;;;;;;;;;;;19.90;54.80;;;;;;5075463;28;19924;-59
2023/08/09 11:35:27;;;;;;;;;;;19.90;55.30;;;;;;5071516;28;19954;-59
2023/08/09 11:37:54;;;;;;;;;;;19.90;55.40;;;;;;5084912;28;19973;-56
2023/08/09 11:40:23;;;;;;;;;;;19.90;54.60;;;;;;5078006;28;20301;-59
2023/08/09 11:42:54;;;;;;;;;;;19.90;54.60;;;;;;5076271;28;19924;-58
2023/08/09 11:45:21;;;;;;;;;;;19.90;54.40;;;;;;5074544;28;19985;-57
2023/08/09 11:47:52;;;;;;;;;;;19.90;54.50;;;;;;5077332;28;19978;-56
2023/08/09 11:50:23;;;;;;;;;;;20.00;54.70;;;;;;5077857;28;19954;-58
2023/08/09 11:52:51;;;;;;;;;;;20.00;54.80;;;;;;5080061;28;19932;-57
2023/08/09 11:55:19;;;;;;;;;;;20.00;54.80;;;;;;5074717;28;20019;-57
2023/08/09 11:57:46;;;;;;;;;;;20.00;54.80;;;;;;5076006;28;20359;-56
2023/08/09 12:00:14;;;;;;;;;;;19.90;54.80;;;;;;5074297;28;19924;-56
2023/08/09 12:02:43;;;;;;;;;;;19.90;54.80;;;;;;5075262;28;20001;-58
2023/08/09 12:05:14;;;;;;;;;;;20.00;54.90;;;;;;5077528;28;19934;-59
2023/08/09 12:07:42;;;;;;;;;;;20.00;55.70;;;;;;5073496;28;19939;-59
2023/08/09 12:10:10;;;;;;;;;;;20.00;54.90;;;;;;5074369;28;20308;-59
2023/08/09 12:12:38;;;;;;;;;;;20.00;54.90;;;;;;5076905;28;19969;-56
2023/08/09 12:15:05;;;;;;;;;;;20.00;54.80;;;;;;5073574;28;20471;-57
2023/08/09 12:17:32;;;;;;;;;;;20.00;54.80;;;;;;5074801;28;20365;-58
2023/08/09 12:20:04;;;;;;;;;;;20.00;55.20;;;;;;5074366;28;19942;-56
2023/08/09 12:22:31;;;;;;;;;;;20.00;55.20;;;;;;5069366;28;19988;-55
2023/08/09 12:24:59;;;;;;;;;;;20.00;55.00;;;;;;5069266;28;20010;-57
2023/08/09 12:27:26;;;;;;;;;;;20.00;55.00;;;;;;5077921;28;19985;-56
2023/08/09 12:29:53;;;;;;;;;;;20.00;54.50;;;;;;5077320;28;19974;-57
2023/08/09 12:32:21;;;;;;;;;;;20.00;54.90;;;;;;5072272;28;19981;-57
2023/08/09 12:34:49;;;;;;;;;;;20.10;54.80;;;;;;5076862;28;20442;-54
2023/08/09 12:37:17;;;;;;;;;;;20.10;54.80;;;;;;5076664;28;19939;-57
2023/08/09 12:39:45;;;;;;;;;;;20.10;54.50;;;;;;5081559;28;19968;-61
2023/08/09 12:42:11;;;;;;;;;;;20.20;54.70;;;;;;5076678;28;20019;-57
2023/08/09 12:44:38;;;;;;;;;;;20.10;54.90;;;;;;5090011;28;19928;-58
2023/08/09 12:47:06;;;;;;;;;;;20.10;54.60;;;;;;5080492;28;19950;-59
2023/08/09 12:49:35;;;;;;;;;;;20.20;54.60;;;;;;5083706;28;19924;-59
2023/08/09 12:52:02;;;;;;;;;;;20.20;54.60;;;;;;5081983;28;20398;-59
2023/08/09 12:54:29;;;;;;;;;;;20.20;54.40;;;;;;5081588;28;19972;-59
2023/08/09 12:56:57;;;;;;;;;;;20.20;54.50;;;;;;5081647;28;19928;-59
2023/08/09 12:59:24;;;;;;;;;;;20.20;54.50;;;;;;5083347;28;19924;-58
2023/08/09 13:01:51;;;;;;;;;;;20.20;54.50;;;;;;5075788;28;19967;-58
2023/08/09 13:04:23;;;;;;;;;;;20.20;54.50;;;;;;5079915;28;20015;-57
2023/08/09 13:06:51;;;;;;;;;;;20.20;54.50;;;;;;5074738;28;19951;-57
2023/08/09 13:09:18;;;;;;;;;;;20.20;54.20;;;;;;5085472;28;20380;-55
2023/08/09 13:11:46;;;;;;;;;;;20.20;54.40;;;;;;5083012;28;19971;-56
2023/08/09 13:14:13;;;;;;;;;;;20.20;54.30;;;;;;5074127;28;19924;-57
2023/08/09 13:16:41;;;;;;;;;;;20.20;54.40;;;;;;5080685;28;20013;-52
2023/08/09 13:19:08;;;;;;;;;;;20.20;54.30;;;;;;5085998;28;19986;-56
2023/08/09 13:21:35;;;;;;;;;;;20.20;54.50;;;;;;5079202;28;20293;-59
2023/08/09 13:24:05;;;;;;;;;;;20.30;54.40;;;;;;5079272;28;19979;-58
2023/08/09 13:26:34;;;;;;;;;;;20.20;54.00;;;;;;5093695;28;19925;-62
2023/08/09 13:29:01;;;;;;;;;;;20.20;54.00;;;;;;5080327;28;19928;-59
2023/08/09 13:31:28;;;;;;;;;;;20.20;54.10;;;;;;5086647;28;19923;-58
2023/08/09 13:33:56;;;;;;;;;;;20.20;53.90;;;;;;5080809;28;20275;-58
2023/08/09 13:36:23;;;;;;;;;;;20.20;54.20;;;;;;5087134;28;19950;-58
2023/08/09 13:38:50;;;;;;;;;;;20.20;54.10;;;;;;5088670;28;20319;-59
2023/08/09 13:41:17;;;;;;;;;;;20.10;54.30;;;;;;5081189;28;20362;-57
2023/08/09 13:43:44;;;;;;;;;;;20.10;54.10;;;;;;5074750;28;19928;-52
2023/08/09 13:46:11;;;;;;;;;;;20.10;54.40;;;;;;5083627;28;19963;-53
2023/08/09 13:48:38;;;;;;;;;;;20.10;53.90;;;;;;5080304;28;19924;-53
2023/08/09 13:51:06;;;;;;;;;;;20.20;53.90;;;;;;5081615;28;19962;-55
2023/08/09 13:53:33;;;;;;;;;;;20.20;53.60;;;;;;5074775;28;20429;-56
2023/08/09 13:56:00;;;;;;;;;;;20.20;53.60;;;;;;5079750;28;19975;-53
2023/08/09 13:58:27;;;;;;;;;;;20.20;53.80;;;;;;5075277;28;19960;-58
2023/08/09 14:00:54;;;;;;;;;;;20.20;53.40;;;;;;5080120;28;19924;-57
2023/08/09 14:03:22;;;;;;;;;;;20.20;53.50;;;;;;5074053;28;19932;-60
2023/08/09 14:05:50;;;;;;;;;;;20.30;62.20;;;;;;5075044;28;20015;-57
2023/08/09 14:08:17;;;;;;;;;;;20.50;67.60;;;;;;5065876;28;19932;-60
2023/08/09 14:10:44;;;;;;;;;;;20.90;71.80;;;;;;5065445;28;19928;-59
2023/08/09 14:13:11;;;;;;;;;;;21.20;72.40;;;;;;5071425;28;20015;-61
2023/08/09 14:15:38;;;;;;;;;;;21.60;73.00;;;;;;5077368;28;19928;-61
2023/08/09 14:18:05;;;;;;;;;;;21.90;73.10;;;;;;5080681;28;19950;-60
2023/08/09 14:20:35;;;;;;;;;;;22.20;72.60;;;;;;5080484;28;19978;-58